Lincolnton, NC

10:42 PM EST on March 03, 2015 (GMT -0500)
Lincolnton-Lincoln County Regional | Change Station
CLOSE
Current Station
Airport
Location: Lincolnton,
Elevation: 876 ft
Nearby Weather Stations
Active Advisory: Dense Fog Advisory

Elev 876 ft 35.48 °N, 81.16 °W | Updated 7 minutes ago

Overcast
Overcast
40 °F
Feels Like 40 °F
N
0
Wind Variable Wind from North

Today
High -- | Low -- °F
--% Chance of Precip.
Yesterday
High -- | Low -- °F
Precip. -- in
6:52 AM 6:21 PM
Waxing Gibbous, 98% visible
Pressure 30.11 in
Visibility 1.5 miles
Clouds Overcast 300 ft
Dew Point 40 °F
Humidity 99%
Rainfall 0.06 in
Snow Depth Not available.
UV 0 out of 12
Pollen 3.20 out of 12
Air Quality Not available.
Flu Activity Not available.
METAR KIPJ 040335Z AUTO 00000KT 1 1/2SM BR OVC003 05/05 A3011 RMK AO2 T00460045

More Conditions Fewer Conditions

Pressure 30.11 in
Visibility 1.5 miles
Clouds Overcast 300 ft
Dew Point 40 °F
Humidity 99%
Rainfall 0.06 in
Snow Depth Not available.
UV 0 out of 12
Pollen 3.20 out of 12
Air Quality Not available.
Flu Activity Not available.
METAR KIPJ 040335Z AUTO 00000KT 1 1/2SM BR OVC003 05/05 A3011 RMK AO2 T00460045

More Conditions Fewer Conditions

10-Day Weather Forecast

Almanac

Astronomy

Mar. 03, 2015 Rise Set
Actual Time
Civil Twilight
Nautical Twilight
Astronomical Twilight
Moon
Length of Visible Light
Length of Day
Tomorrow will be .
, % of the Moon is Illuminated

Today's Extremes

State Highs State Lows

Community

WunderPhotos

Upload Photos

1,802,379 photos uploaded!

WunderBlogs® & News

Nearby

Air Quality

  Air Quality AQ Index Pollutant
Not available.

Snow Depth

Station Depth Elevation

Earthquake Activity

City Distance Mag. Time & Date
Minimum magnitude displayed is 2.5.

Coastal Water Temperatures

Place Temperature

Nearby Weather Stations

Dense Fog Advisory
Statement as of 8:56 PM EST on March 03, 2015

... Dense fog advisory in effect from midnight tonight to 10 am
EST Wednesday...

The National Weather Service in Greenville-Spartanburg has issued
a dense fog advisory... which is in effect from midnight tonight
to 10 am EST Wednesday.

* Locations... all areas along and east of the North Carolina
mountains.

* Visibility... one quarter mile or less at times.

* Impacts... dense fog will lower visibility to the Point of
making driving conditions hazardous.

Precautionary/preparedness actions...

A dense fog advisory means visibilities will frequently be
reduced to less than one quarter mile. If driving... slow down...
use your headlights... and leave plenty of distance ahead of you.